createdAt,value
2018-10-05T00:01:35.592Z,5.60
2018-10-05T00:04:05.000Z,5.60
2018-10-05T00:06:34.326Z,5.60
2018-10-05T00:09:04.526Z,5.50
2018-10-05T00:11:34.337Z,5.50
2018-10-05T00:14:03.633Z,5.40
2018-10-05T00:16:33.071Z,5.40
2018-10-05T00:19:02.289Z,5.40
2018-10-05T00:21:32.464Z,5.30
2018-10-05T00:24:02.536Z,5.30
2018-10-05T00:26:32.364Z,5.30
2018-10-05T00:29:01.806Z,5.30
2018-10-05T00:31:31.165Z,5.30
2018-10-05T00:34:01.484Z,5.30
2018-10-05T00:36:30.513Z,5.20
2018-10-05T00:38:59.529Z,5.20
2018-10-05T00:41:28.535Z,5.20
2018-10-05T00:43:57.924Z,5.20
2018-10-05T00:46:27.349Z,5.10
2018-10-05T00:48:56.452Z,5.10
2018-10-05T00:51:26.962Z,5.20
2018-10-05T00:53:56.156Z,5.20
2018-10-05T00:56:26.025Z,5.20
2018-10-05T00:58:55.345Z,5.20
2018-10-05T01:01:24.773Z,5.20
2018-10-05T01:03:55.042Z,5.10
2018-10-05T01:06:24.152Z,5.10
2018-10-05T01:08:53.671Z,5.10
2018-10-05T01:11:23.716Z,5.10
2018-10-05T01:13:53.128Z,5.10
2018-10-05T01:16:22.802Z,5.10
2018-10-05T01:18:51.997Z,5.10
2018-10-05T01:21:21.233Z,5.00
2018-10-05T01:23:52.811Z,5.00
2018-10-05T01:26:22.333Z,4.90
2018-10-05T01:28:52.483Z,4.90
2018-10-05T01:31:24.405Z,4.80
2018-10-05T01:33:56.095Z,4.80
2018-10-05T01:36:26.169Z,4.80
2018-10-05T01:38:55.906Z,4.80
2018-10-05T01:41:25.854Z,4.80
2018-10-05T01:43:56.188Z,4.80
2018-10-05T01:46:27.320Z,4.80
2018-10-05T01:48:56.676Z,4.70
2018-10-05T01:51:33.898Z,4.70
2018-10-05T01:54:04.361Z,4.80
2018-10-05T01:56:35.405Z,4.80
2018-10-05T01:59:04.791Z,4.80
2018-10-05T02:01:33.926Z,4.70
2018-10-05T02:04:03.272Z,4.70
2018-10-05T02:06:33.207Z,4.60
2018-10-05T02:09:05.463Z,4.60
2018-10-05T02:11:35.362Z,4.50
2018-10-05T02:14:05.297Z,4.50
2018-10-05T02:16:34.885Z,4.50
2018-10-05T02:19:04.452Z,4.50
2018-10-05T02:21:37.043Z,4.50
2018-10-05T02:24:07.637Z,4.50
2018-10-05T02:26:38.589Z,4.60
2018-10-05T02:29:07.783Z,4.60
2018-10-05T02:31:36.740Z,4.60
2018-10-05T02:34:05.943Z,4.60
2018-10-05T02:36:37.065Z,4.60
2018-10-05T02:39:08.497Z,4.60
2018-10-05T02:41:40.326Z,4.70
2018-10-05T02:44:09.523Z,4.70
2018-10-05T02:46:39.012Z,4.80
2018-10-05T02:49:07.991Z,4.80
2018-10-05T02:51:37.233Z,4.70
2018-10-05T02:54:07.466Z,4.80
2018-10-05T02:56:36.638Z,4.80
2018-10-05T02:59:07.129Z,4.70
2018-10-05T03:01:47.540Z,4.80
2018-10-05T03:04:16.876Z,4.80
2018-10-05T03:06:50.203Z,4.80
2018-10-05T03:09:19.646Z,4.80
2018-10-05T03:11:52.391Z,4.80
2018-10-05T03:14:22.712Z,4.90
2018-10-05T03:16:53.990Z,4.90
2018-10-05T03:19:23.855Z,4.90
2018-10-05T03:21:55.111Z,4.90
2018-10-05T03:24:26.743Z,4.90
2018-10-05T03:27:01.826Z,4.90
2018-10-05T03:29:33.151Z,4.90
2018-10-05T03:32:05.141Z,4.80
2018-10-05T03:34:34.135Z,4.80
2018-10-05T03:37:03.105Z,4.80
2018-10-05T03:39:32.223Z,4.80
2018-10-05T03:42:01.329Z,4.90
2018-10-05T03:44:31.917Z,5.00
2018-10-05T03:47:02.291Z,5.00
2018-10-05T03:49:34.594Z,5.00
2018-10-05T03:52:05.324Z,5.00
2018-10-05T03:54:35.211Z,4.90
2018-10-05T03:57:07.327Z,4.90
2018-10-05T03:59:37.549Z,4.90
2018-10-05T04:02:10.237Z,4.80
2018-10-05T04:04:40.436Z,4.80
2018-10-05T04:07:12.312Z,4.80
2018-10-05T04:09:44.794Z,4.80
2018-10-05T04:12:14.962Z,4.90
2018-10-05T04:14:45.395Z,5.00
2018-10-05T04:17:18.159Z,5.00
2018-10-05T04:19:47.469Z,5.00
2018-10-05T04:22:26.633Z,5.00
2018-10-05T04:24:56.037Z,4.90
2018-10-05T04:27:26.010Z,4.90
2018-10-05T04:29:56.090Z,4.80
2018-10-05T04:32:25.869Z,4.70
2018-10-05T04:34:55.201Z,4.70
2018-10-05T04:37:24.575Z,4.90
2018-10-05T04:39:53.976Z,4.80
2018-10-05T04:42:23.288Z,4.60
2018-10-05T04:44:52.700Z,4.40
2018-10-05T04:47:21.814Z,4.30
2018-10-05T04:49:50.922Z,4.30
2018-10-05T04:52:20.529Z,4.30
2018-10-05T04:54:49.776Z,4.30
2018-10-05T04:57:19.109Z,4.30
2018-10-05T04:59:53.139Z,4.30
2018-10-05T05:02:27.312Z,4.40
2018-10-05T05:04:58.640Z,4.50
2018-10-05T05:07:31.745Z,4.60
2018-10-05T05:10:04.900Z,4.60
2018-10-05T05:12:37.634Z,4.70
2018-10-05T05:15:10.702Z,4.80
2018-10-05T05:17:46.592Z,4.90
2018-10-05T05:20:18.645Z,5.00
2018-10-05T05:22:54.273Z,5.00
2018-10-05T05:25:23.982Z,5.00
2018-10-05T05:27:54.506Z,5.00
2018-10-05T05:30:23.931Z,5.10
2018-10-05T05:32:53.241Z,5.10
2018-10-05T05:35:25.676Z,5.10
2018-10-05T05:37:55.849Z,5.10
2018-10-05T05:40:25.210Z,5.10
2018-10-05T05:42:54.419Z,5.10
2018-10-05T05:45:23.776Z,5.10
2018-10-05T05:47:53.314Z,5.10
2018-10-05T05:50:24.719Z,5.00
2018-10-05T05:52:55.145Z,5.00
2018-10-05T05:55:24.496Z,5.10
2018-10-05T05:57:54.524Z,5.20
2018-10-05T06:00:24.887Z,5.20
2018-10-05T06:02:55.060Z,5.30
2018-10-05T06:05:25.723Z,5.50
2018-10-05T06:07:58.027Z,6.00
2018-10-05T06:10:28.157Z,6.50
2018-10-05T06:12:57.503Z,6.90
2018-10-05T06:15:27.617Z,7.30
2018-10-05T06:17:57.582Z,7.70
2018-10-05T06:20:28.366Z,8.30
2018-10-05T06:23:00.265Z,9.00
2018-10-05T06:25:31.791Z,9.70
2018-10-05T06:28:02.637Z,10.40
2018-10-05T06:30:32.748Z,10.30
2018-10-05T06:33:03.003Z,9.90
2018-10-05T06:35:32.391Z,9.60
2018-10-05T06:38:01.905Z,9.40
2018-10-05T06:40:32.304Z,9.10
2018-10-05T06:43:01.605Z,8.90
2018-10-05T06:45:30.843Z,8.80
2018-10-05T06:48:00.143Z,8.80
2018-10-05T06:50:29.084Z,8.90
2018-10-05T06:52:58.281Z,9.20
2018-10-05T06:55:27.331Z,9.40
2018-10-05T06:57:56.698Z,9.70
2018-10-05T07:00:26.419Z,10.10
2018-10-05T07:02:55.673Z,11.30
2018-10-05T07:05:25.652Z,12.90
2018-10-05T07:07:55.037Z,14.40
2018-10-05T07:10:24.246Z,15.70
2018-10-05T07:12:53.366Z,16.90
2018-10-05T07:15:22.591Z,18.10
2018-10-05T07:17:54.188Z,19.30
2018-10-05T07:20:23.549Z,20.60
2018-10-05T07:22:52.947Z,21.90
2018-10-05T07:25:22.226Z,23.10
2018-10-05T07:27:51.462Z,24.10
2018-10-05T07:30:20.651Z,25.00
2018-10-05T07:32:50.052Z,25.80
2018-10-05T07:35:19.874Z,26.20
2018-10-05T07:37:49.406Z,26.50
2018-10-05T07:40:18.764Z,26.70
2018-10-05T07:42:48.228Z,27.00
2018-10-05T07:45:17.566Z,27.10
2018-10-05T07:47:46.948Z,27.50
2018-10-05T07:50:16.285Z,27.90
2018-10-05T07:52:45.371Z,28.20
2018-10-05T07:55:14.460Z,28.50
2018-10-05T07:57:43.983Z,28.80
2018-10-05T08:00:13.085Z,29.20
2018-10-05T08:02:42.483Z,29.20
2018-10-05T08:05:11.778Z,29.40
2018-10-05T08:07:41.193Z,29.40
2018-10-05T08:10:10.811Z,29.40
2018-10-05T08:12:40.222Z,29.10
2018-10-05T08:15:09.741Z,29.20
2018-10-05T08:17:39.386Z,29.30
2018-10-05T08:20:08.966Z,29.50
2018-10-05T08:22:38.307Z,29.50
2018-10-05T08:25:08.003Z,29.60
2018-10-05T08:27:37.505Z,29.90
2018-10-05T08:30:07.599Z,30.40
2018-10-05T08:32:37.016Z,30.40
2018-10-05T08:35:06.384Z,29.90
2018-10-05T08:37:35.795Z,29.40
2018-10-05T08:40:05.882Z,29.30
2018-10-05T08:42:35.453Z,29.40
2018-10-05T08:45:04.898Z,29.50
2018-10-05T08:47:34.434Z,29.60
2018-10-05T08:50:03.731Z,29.90
2018-10-05T08:52:33.644Z,29.80
2018-10-05T08:55:02.884Z,29.70
2018-10-05T08:57:32.501Z,29.70
2018-10-05T09:00:01.619Z,29.80
2018-10-05T09:02:30.833Z,29.80
2018-10-05T09:05:00.107Z,29.70
2018-10-05T09:07:29.416Z,30.20
2018-10-05T09:09:58.521Z,30.50
2018-10-05T09:12:27.882Z,30.70
2018-10-05T09:14:57.944Z,30.80
2018-10-05T09:17:27.289Z,31.00
2018-10-05T09:19:56.699Z,31.00
2018-10-05T09:22:26.133Z,31.20
2018-10-05T09:24:55.684Z,31.30
2018-10-05T09:27:25.008Z,31.40
2018-10-05T09:29:54.347Z,31.50
2018-10-05T09:32:24.081Z,31.60
2018-10-05T09:34:54.107Z,31.40
2018-10-05T09:37:23.459Z,31.40
2018-10-05T09:39:52.872Z,31.40
2018-10-05T09:42:24.294Z,31.30
2018-10-05T09:44:54.814Z,31.30
2018-10-05T09:47:24.875Z,31.70
2018-10-05T09:49:54.246Z,31.80
2018-10-05T09:52:23.723Z,31.70
2018-10-05T09:54:53.137Z,31.70
2018-10-05T09:57:25.375Z,31.90
2018-10-05T09:59:54.908Z,32.10
2018-10-05T10:02:29.506Z,32.70
2018-10-05T10:04:58.859Z,32.80
2018-10-05T10:07:29.145Z,33.30
2018-10-05T10:09:58.401Z,33.40
2018-10-05T10:12:27.917Z,33.10
2018-10-05T10:14:57.278Z,32.90
2018-10-05T10:17:27.149Z,32.70
2018-10-05T10:19:56.396Z,32.70
2018-10-05T10:22:25.764Z,32.60
2018-10-05T10:24:55.095Z,32.70
2018-10-05T10:27:24.410Z,33.00
2018-10-05T10:29:54.806Z,33.00
2018-10-05T10:32:24.174Z,32.90
2018-10-05T10:34:53.851Z,32.90
2018-10-05T10:37:23.232Z,33.00
2018-10-05T10:39:52.720Z,33.10
2018-10-05T10:42:22.100Z,33.40
2018-10-05T10:44:51.160Z,33.40
2018-10-05T10:47:20.390Z,33.20
2018-10-05T10:49:49.764Z,33.20
2018-10-05T10:52:19.317Z,33.20
2018-10-05T10:54:48.642Z,32.80
2018-10-05T10:57:17.959Z,32.70
2018-10-05T10:59:47.395Z,33.00
2018-10-05T11:02:16.756Z,33.30
2018-10-05T11:04:46.048Z,33.00
2018-10-05T11:07:15.457Z,32.80
2018-10-05T11:09:44.897Z,32.70
2018-10-05T11:12:13.998Z,32.50
2018-10-05T11:14:44.088Z,32.20
2018-10-05T11:17:13.459Z,31.00
2018-10-05T11:19:43.316Z,30.40
2018-10-05T11:22:12.536Z,29.40
2018-10-05T11:24:41.902Z,28.80
2018-10-05T11:27:11.617Z,28.90
2018-10-05T11:29:41.418Z,29.10
2018-10-05T11:32:10.786Z,29.40
2018-10-05T11:34:40.076Z,29.60
2018-10-05T11:37:09.385Z,28.70
2018-10-05T11:39:38.591Z,28.10
2018-10-05T11:42:08.617Z,28.10
2018-10-05T11:44:37.869Z,28.00
2018-10-05T11:47:07.206Z,27.90
2018-10-05T11:49:36.591Z,27.50
2018-10-05T11:52:06.088Z,26.70
2018-10-05T11:54:35.304Z,26.50
2018-10-05T11:57:04.879Z,26.60
2018-10-05T11:59:34.282Z,26.50
2018-10-05T12:02:03.608Z,26.30
2018-10-05T12:04:34.350Z,26.20
2018-10-05T12:07:03.609Z,26.30
2018-10-05T12:09:32.791Z,26.20
2018-10-05T12:12:02.207Z,26.20
2018-10-05T12:14:31.606Z,26.50
2018-10-05T12:17:01.002Z,26.80
2018-10-05T12:19:30.421Z,26.50
2018-10-05T12:21:59.949Z,25.90
2018-10-05T12:24:29.358Z,25.80
2018-10-05T12:26:59.038Z,25.80
2018-10-05T12:29:28.438Z,25.80
2018-10-05T12:31:58.302Z,25.60
2018-10-05T12:34:27.721Z,24.90
2018-10-05T12:36:57.162Z,24.60
2018-10-05T12:39:26.544Z,24.40
2018-10-05T12:41:56.077Z,24.20
2018-10-05T12:44:25.507Z,23.90
2018-10-05T12:46:54.932Z,23.70
2018-10-05T12:49:24.527Z,23.70
2018-10-05T12:51:53.942Z,23.60
2018-10-05T12:54:23.630Z,23.30
2018-10-05T12:56:52.793Z,23.10
2018-10-05T12:59:23.344Z,23.00
2018-10-05T13:01:52.509Z,22.80
2018-10-05T13:04:21.718Z,22.90
2018-10-05T13:06:50.972Z,23.20
2018-10-05T13:09:20.376Z,23.40
2018-10-05T13:11:50.751Z,23.70
2018-10-05T13:14:20.044Z,23.80
2018-10-05T13:16:49.462Z,23.90
2018-10-05T13:19:19.328Z,23.70
2018-10-05T13:21:48.663Z,23.50
2018-10-05T13:24:17.893Z,23.00
2018-10-05T13:26:47.571Z,22.50
2018-10-05T13:29:16.886Z,22.50
2018-10-05T13:31:47.083Z,22.50
2018-10-05T13:34:16.358Z,22.80
2018-10-05T13:36:45.634Z,23.00
2018-10-05T13:39:14.977Z,23.00
2018-10-05T13:41:45.868Z,23.10
2018-10-05T13:44:15.216Z,23.20
2018-10-05T13:46:45.000Z,23.30
2018-10-05T13:49:14.481Z,23.30
2018-10-05T13:51:44.128Z,23.00
2018-10-05T13:54:13.581Z,22.70
2018-10-05T13:56:43.167Z,22.70
2018-10-05T13:59:14.256Z,22.60
2018-10-05T14:01:43.524Z,22.70
2018-10-05T14:04:12.844Z,22.60
2018-10-05T14:06:42.133Z,22.50
2018-10-05T14:09:11.792Z,22.40
2018-10-05T14:11:41.158Z,22.30
2018-10-05T14:14:10.463Z,22.30
2018-10-05T14:16:39.633Z,22.30
2018-10-05T14:19:08.965Z,22.20
2018-10-05T14:21:39.360Z,22.00
2018-10-05T14:24:08.832Z,22.00
2018-10-05T14:26:38.171Z,22.00
2018-10-05T14:29:07.659Z,22.10
2018-10-05T14:31:36.969Z,22.10
2018-10-05T14:34:06.241Z,22.10
2018-10-05T14:36:35.467Z,22.00
2018-10-05T14:39:07.251Z,22.00
2018-10-05T14:41:36.636Z,22.00
2018-10-05T14:44:07.750Z,22.10
2018-10-05T14:46:37.181Z,22.00
2018-10-05T14:49:06.385Z,21.80
2018-10-05T14:51:35.719Z,21.70
2018-10-05T14:54:05.057Z,21.60
2018-10-05T14:56:35.180Z,21.50
2018-10-05T14:59:04.434Z,21.40
2018-10-05T15:01:34.432Z,21.30
2018-10-05T15:04:03.714Z,21.30
2018-10-05T15:06:33.035Z,21.20
2018-10-05T15:09:02.298Z,21.10
2018-10-05T15:11:31.885Z,21.10
2018-10-05T15:14:01.252Z,21.00
2018-10-05T15:16:30.526Z,21.00
2018-10-05T15:18:59.889Z,20.90
2018-10-05T15:21:29.285Z,20.90
2018-10-05T15:23:58.975Z,20.90
2018-10-05T15:26:28.241Z,20.90
2018-10-05T15:28:57.578Z,20.80
2018-10-05T15:31:27.096Z,20.70
2018-10-05T15:33:57.973Z,20.70
2018-10-05T15:36:27.185Z,20.60
2018-10-05T15:38:56.565Z,20.60
2018-10-05T15:41:26.538Z,20.50
2018-10-05T15:43:55.986Z,20.50
2018-10-05T15:46:36.479Z,20.40
2018-10-05T15:49:06.020Z,20.40
2018-10-05T15:51:35.329Z,20.30
2018-10-05T15:54:04.562Z,20.20
2018-10-05T15:56:33.847Z,20.20
2018-10-05T15:59:03.100Z,20.10
2018-10-05T16:01:32.335Z,20.00
2018-10-05T16:04:01.632Z,19.90
2018-10-05T16:06:30.837Z,19.90
2018-10-05T16:09:00.574Z,19.80
2018-10-05T16:11:30.095Z,19.70
2018-10-05T16:13:59.926Z,19.60
2018-10-05T16:16:29.288Z,19.50
2018-10-05T16:18:58.599Z,19.40
2018-10-05T16:21:28.214Z,19.30
2018-10-05T16:23:58.630Z,19.20
2018-10-05T16:26:28.195Z,19.10
2018-10-05T16:28:57.662Z,19.00
2018-10-05T16:31:27.803Z,18.90
2018-10-05T16:33:57.267Z,18.80
2018-10-05T16:36:27.881Z,18.70
2018-10-05T16:38:57.264Z,18.60
2018-10-05T16:41:27.037Z,18.50
2018-10-05T16:43:56.480Z,18.40
2018-10-05T16:46:25.876Z,18.20
2018-10-05T16:48:55.925Z,18.10
2018-10-05T16:51:25.720Z,18.00
2018-10-05T16:53:55.090Z,17.90
2018-10-05T16:56:24.502Z,17.80
2018-10-05T16:58:54.918Z,17.60
2018-10-05T17:01:24.405Z,17.50
2018-10-05T17:03:54.320Z,17.30
2018-10-05T17:06:23.857Z,17.20
2018-10-05T17:08:56.534Z,17.10
2018-10-05T17:11:25.998Z,17.00
2018-10-05T17:13:56.355Z,16.90
2018-10-05T17:16:25.962Z,16.80
2018-10-05T17:18:55.370Z,16.70
2018-10-05T17:21:25.855Z,16.60
2018-10-05T17:23:55.066Z,16.40
2018-10-05T17:26:24.267Z,16.30
2018-10-05T17:28:53.438Z,16.20
2018-10-05T17:31:30.872Z,16.10
2018-10-05T17:34:01.157Z,16.00
2018-10-05T17:36:30.372Z,15.90
2018-10-05T17:38:59.513Z,15.90
2018-10-05T17:41:28.913Z,15.80
2018-10-05T17:43:58.210Z,15.70
2018-10-05T17:46:27.239Z,15.60
2018-10-05T17:48:56.688Z,15.50
2018-10-05T17:51:26.123Z,15.40
2018-10-05T17:53:55.327Z,15.30
2018-10-05T17:56:24.567Z,15.20
2018-10-05T17:58:53.717Z,15.10
2018-10-05T18:01:22.825Z,15.10
2018-10-05T18:03:52.060Z,15.00
2018-10-05T18:06:21.377Z,14.90
2018-10-05T18:08:50.622Z,14.80
2018-10-05T18:11:20.918Z,14.70
2018-10-05T18:13:50.202Z,14.50
2018-10-05T18:16:19.929Z,14.30
2018-10-05T18:18:49.007Z,14.10
2018-10-05T18:21:18.678Z,13.90
2018-10-05T18:23:47.847Z,13.70
2018-10-05T18:26:17.286Z,13.60
2018-10-05T18:28:46.625Z,13.50
2018-10-05T18:31:16.044Z,13.40
2018-10-05T18:33:45.410Z,13.30
2018-10-05T18:36:14.734Z,13.20
2018-10-05T18:38:45.292Z,13.10
2018-10-05T18:41:14.723Z,13.00
2018-10-05T18:43:44.435Z,12.90
2018-10-05T18:46:13.839Z,12.70
2018-10-05T18:48:43.377Z,12.70
2018-10-05T18:51:12.772Z,12.60
2018-10-05T18:53:43.736Z,12.60
2018-10-05T18:56:24.306Z,12.50
2018-10-05T18:58:53.960Z,12.50
2018-10-05T19:01:23.513Z,12.40
2018-10-05T19:03:53.243Z,12.30
2018-10-05T19:06:22.928Z,12.20
2018-10-05T19:08:52.008Z,12.10
2018-10-05T19:11:21.294Z,12.00
2018-10-05T19:13:50.648Z,11.90
2018-10-05T19:16:20.142Z,11.80
2018-10-05T19:18:50.708Z,11.70
2018-10-05T19:21:19.922Z,11.70
2018-10-05T19:23:49.818Z,11.60
2018-10-05T19:26:20.218Z,11.50
2018-10-05T19:28:49.602Z,11.50
2018-10-05T19:31:19.680Z,11.40
2018-10-05T19:33:52.190Z,11.40
2018-10-05T19:36:21.975Z,11.30
2018-10-05T19:38:51.504Z,11.30
2018-10-05T19:41:21.163Z,11.30
2018-10-05T19:43:50.575Z,11.20
2018-10-05T19:46:19.943Z,11.10
2018-10-05T19:48:48.979Z,11.00
2018-10-05T19:51:18.262Z,11.00
2018-10-05T19:53:47.430Z,10.90
2018-10-05T19:56:16.705Z,10.80
2018-10-05T19:58:46.131Z,10.70
2018-10-05T20:01:15.411Z,10.70
2018-10-05T20:03:44.571Z,10.60
2018-10-05T20:06:13.875Z,10.50
2018-10-05T20:08:43.209Z,10.50
2018-10-05T20:11:12.605Z,10.40
2018-10-05T20:13:41.865Z,10.30
2018-10-05T20:16:13.522Z,10.30
2018-10-05T20:18:42.868Z,10.20
2018-10-05T20:21:12.075Z,10.20
2018-10-05T20:23:41.245Z,10.20
2018-10-05T20:26:10.282Z,10.10
2018-10-05T20:28:39.866Z,10.00
2018-10-05T20:31:09.482Z,10.00
2018-10-05T20:33:39.098Z,9.90
2018-10-05T20:36:08.377Z,9.90
2018-10-05T20:38:38.234Z,9.80
2018-10-05T20:41:07.489Z,9.70
2018-10-05T20:43:36.549Z,9.70
2018-10-05T20:46:06.122Z,9.70
2018-10-05T20:48:35.488Z,9.60
2018-10-05T20:51:04.926Z,9.50
2018-10-05T20:53:34.292Z,9.50
2018-10-05T20:56:03.702Z,9.50
2018-10-05T20:58:33.022Z,9.40
2018-10-05T21:01:03.037Z,9.30
2018-10-05T21:03:32.331Z,9.30
2018-10-05T21:06:01.786Z,9.20
2018-10-05T21:08:31.168Z,9.20
2018-10-05T21:11:00.320Z,9.20
2018-10-05T21:13:29.357Z,9.20
2018-10-05T21:15:58.334Z,9.10
2018-10-05T21:18:27.642Z,9.10
2018-10-05T21:20:56.773Z,9.10
2018-10-05T21:23:27.550Z,9.10
2018-10-05T21:25:56.800Z,9.10
2018-10-05T21:28:26.217Z,9.10
2018-10-05T21:30:55.522Z,9.10
2018-10-05T21:33:24.676Z,9.00
2018-10-05T21:35:53.765Z,8.90
2018-10-05T21:38:22.747Z,8.80
2018-10-05T21:40:52.510Z,8.80
2018-10-05T21:43:21.618Z,8.80
2018-10-05T21:45:50.634Z,8.80
2018-10-05T21:48:19.992Z,8.70
2018-10-05T21:50:49.338Z,8.70
2018-10-05T21:53:18.344Z,8.60
2018-10-05T21:55:47.536Z,8.60
2018-10-05T21:58:16.664Z,8.50
2018-10-05T22:00:45.737Z,8.50
2018-10-05T22:03:14.825Z,8.40
2018-10-05T22:05:45.950Z,8.40
2018-10-05T22:08:15.138Z,8.30
2018-10-05T22:10:44.076Z,8.30
2018-10-05T22:13:13.294Z,8.30
2018-10-05T22:15:42.298Z,8.20
2018-10-05T22:18:12.543Z,8.20
2018-10-05T22:20:41.738Z,8.20
2018-10-05T22:23:10.880Z,8.10
2018-10-05T22:25:39.860Z,8.10
2018-10-05T22:28:09.572Z,8.20
2018-10-05T22:30:39.083Z,8.20
2018-10-05T22:33:08.927Z,8.20
2018-10-05T22:35:37.913Z,8.10
2018-10-05T22:38:07.809Z,8.10
2018-10-05T22:40:37.068Z,8.00
2018-10-05T22:43:06.767Z,8.00
2018-10-05T22:45:36.308Z,7.90
2018-10-05T22:48:05.657Z,7.90
2018-10-05T22:50:35.040Z,7.90
2018-10-05T22:53:04.446Z,7.90
2018-10-05T22:55:34.188Z,7.80
2018-10-05T22:58:03.271Z,7.80
2018-10-05T23:00:32.467Z,7.70
2018-10-05T23:03:01.666Z,7.70
2018-10-05T23:05:30.605Z,7.70
2018-10-05T23:07:59.690Z,7.60
2018-10-05T23:10:29.212Z,7.60
2018-10-05T23:12:58.695Z,7.60
2018-10-05T23:15:27.928Z,7.60
2018-10-05T23:17:56.991Z,7.60
2018-10-05T23:20:26.641Z,7.60
2018-10-05T23:22:55.702Z,7.60
2018-10-05T23:25:26.568Z,7.60
2018-10-05T23:27:56.143Z,7.60
2018-10-05T23:30:25.792Z,7.50
2018-10-05T23:32:55.205Z,7.50
2018-10-05T23:35:24.245Z,7.50
2018-10-05T23:37:53.361Z,7.40
2018-10-05T23:40:22.649Z,7.40
2018-10-05T23:42:52.104Z,7.40
2018-10-05T23:45:21.044Z,7.40
2018-10-05T23:47:50.092Z,7.40
2018-10-05T23:50:19.136Z,7.30
2018-10-05T23:52:49.607Z,7.30
2018-10-05T23:55:19.109Z,7.30
2018-10-05T23:57:48.998Z,7.20
